sensor_id;sensor_type;location;lat;lon;timestamp;P1;durP1;ratioP1;P2;durP2;ratioP2
11263;SDS011;5689;48.798;9.070;2022-08-02T00:02:02;1.05;;;1.05;;
11263;SDS011;5689;48.798;9.070;2022-08-02T00:04:32;1.27;;;1.27;;
11263;SDS011;5689;48.798;9.070;2022-08-02T00:07:00;1.10;;;1.10;;
11263;SDS011;5689;48.798;9.070;2022-08-02T00:09:28;0.88;;;0.88;;
11263;SDS011;5689;48.798;9.070;2022-08-02T00:11:56;1.10;;;1.10;;
11263;SDS011;5689;48.798;9.070;2022-08-02T00:14:24;1.25;;;1.25;;
11263;SDS011;5689;48.798;9.070;2022-08-02T00:16:52;1.05;;;1.05;;
11263;SDS011;5689;48.798;9.070;2022-08-02T00:19:20;1.20;;;1.20;;
11263;SDS011;5689;48.798;9.070;2022-08-02T00:21:49;1.35;;;1.35;;
11263;SDS011;5689;48.798;9.070;2022-08-02T00:24:17;1.17;;;1.17;;
11263;SDS011;5689;48.798;9.070;2022-08-02T00:26:45;0.93;;;0.93;;
11263;SDS011;5689;48.798;9.070;2022-08-02T00:29:13;1.13;;;1.13;;
11263;SDS011;5689;48.798;9.070;2022-08-02T00:31:41;0.95;;;0.95;;
11263;SDS011;5689;48.798;9.070;2022-08-02T00:34:09;1.50;;;1.50;;
11263;SDS011;5689;48.798;9.070;2022-08-02T00:36:37;1.10;;;1.10;;
11263;SDS011;5689;48.798;9.070;2022-08-02T00:39:07;1.00;;;1.00;;
11263;SDS011;5689;48.798;9.070;2022-08-02T00:41:42;0.98;;;0.98;;
11263;SDS011;5689;48.798;9.070;2022-08-02T00:44:12;1.10;;;1.10;;
11263;SDS011;5689;48.798;9.070;2022-08-02T00:46:40;1.15;;;1.15;;
11263;SDS011;5689;48.798;9.070;2022-08-02T00:49:08;0.88;;;0.88;;
11263;SDS011;5689;48.798;9.070;2022-08-02T00:51:36;0.85;;;0.85;;
11263;SDS011;5689;48.798;9.070;2022-08-02T00:54:06;0.65;;;0.65;;
11263;SDS011;5689;48.798;9.070;2022-08-02T00:56:35;0.70;;;0.70;;
11263;SDS011;5689;48.798;9.070;2022-08-02T00:59:03;1.05;;;1.05;;
11263;SDS011;5689;48.798;9.070;2022-08-02T01:01:31;1.00;;;1.00;;
11263;SDS011;5689;48.798;9.070;2022-08-02T01:04:06;0.75;;;0.75;;
11263;SDS011;5689;48.798;9.070;2022-08-02T01:06:35;1.20;;;1.20;;
11263;SDS011;5689;48.798;9.070;2022-08-02T01:09:04;1.20;;;1.20;;
11263;SDS011;5689;48.798;9.070;2022-08-02T01:11:34;1.20;;;1.20;;
11263;SDS011;5689;48.798;9.070;2022-08-02T01:14:03;1.45;;;1.45;;
11263;SDS011;5689;48.798;9.070;2022-08-02T01:16:35;1.90;;;1.85;;
11263;SDS011;5689;48.798;9.070;2022-08-02T01:19:09;1.65;;;1.65;;
11263;SDS011;5689;48.798;9.070;2022-08-02T01:21:52;1.58;;;1.58;;
11263;SDS011;5689;48.798;9.070;2022-08-02T01:24:33;1.90;;;1.85;;
11263;SDS011;5689;48.798;9.070;2022-08-02T01:27:15;1.95;;;1.90;;
11263;SDS011;5689;48.798;9.070;2022-08-02T01:29:57;2.08;;;2.00;;
11263;SDS011;5689;48.798;9.070;2022-08-02T01:32:30;2.03;;;1.95;;
11263;SDS011;5689;48.798;9.070;2022-08-02T01:35:02;1.15;;;1.15;;
11263;SDS011;5689;48.798;9.070;2022-08-02T01:37:37;1.77;;;1.77;;
11263;SDS011;5689;48.798;9.070;2022-08-02T01:40:09;1.15;;;1.15;;
11263;SDS011;5689;48.798;9.070;2022-08-02T01:42:42;1.25;;;1.25;;
11263;SDS011;5689;48.798;9.070;2022-08-02T01:45:14;1.98;;;1.90;;
11263;SDS011;5689;48.798;9.070;2022-08-02T01:47:43;1.98;;;1.92;;
11263;SDS011;5689;48.798;9.070;2022-08-02T01:50:14;2.25;;;2.15;;
11263;SDS011;5689;48.798;9.070;2022-08-02T01:52:46;1.77;;;1.77;;
11263;SDS011;5689;48.798;9.070;2022-08-02T01:55:17;2.17;;;2.08;;
11263;SDS011;5689;48.798;9.070;2022-08-02T01:57:49;2.70;;;2.60;;
11263;SDS011;5689;48.798;9.070;2022-08-02T02:00:22;2.55;;;2.45;;
11263;SDS011;5689;48.798;9.070;2022-08-02T02:02:53;2.65;;;2.55;;
11263;SDS011;5689;48.798;9.070;2022-08-02T02:05:23;2.50;;;2.40;;
11263;SDS011;5689;48.798;9.070;2022-08-02T02:07:55;2.00;;;1.95;;
11263;SDS011;5689;48.798;9.070;2022-08-02T02:10:25;2.78;;;2.67;;
11263;SDS011;5689;48.798;9.070;2022-08-02T02:12:55;2.75;;;2.65;;
11263;SDS011;5689;48.798;9.070;2022-08-02T02:15:30;2.85;;;2.75;;
11263;SDS011;5689;48.798;9.070;2022-08-02T02:17:59;3.17;;;3.08;;
11263;SDS011;5689;48.798;9.070;2022-08-02T02:20:29;3.17;;;3.08;;
11263;SDS011;5689;48.798;9.070;2022-08-02T02:22:57;3.97;;;3.83;;
11263;SDS011;5689;48.798;9.070;2022-08-02T02:25:26;3.55;;;3.45;;
11263;SDS011;5689;48.798;9.070;2022-08-02T02:27:56;3.72;;;3.63;;
11263;SDS011;5689;48.798;9.070;2022-08-02T02:30:27;3.72;;;3.63;;
11263;SDS011;5689;48.798;9.070;2022-08-02T02:33:00;3.80;;;3.70;;
11263;SDS011;5689;48.798;9.070;2022-08-02T02:35:31;3.30;;;3.20;;
11263;SDS011;5689;48.798;9.070;2022-08-02T02:38:03;3.72;;;3.63;;
11263;SDS011;5689;48.798;9.070;2022-08-02T02:40:32;3.78;;;3.65;;
11263;SDS011;5689;48.798;9.070;2022-08-02T02:43:02;4.05;;;3.90;;
11263;SDS011;5689;48.798;9.070;2022-08-02T02:45:34;3.15;;;3.05;;
11263;SDS011;5689;48.798;9.070;2022-08-02T02:48:04;3.35;;;3.25;;
11263;SDS011;5689;48.798;9.070;2022-08-02T02:50:33;3.08;;;2.97;;
11263;SDS011;5689;48.798;9.070;2022-08-02T02:53:03;2.58;;;2.47;;
11263;SDS011;5689;48.798;9.070;2022-08-02T02:55:32;3.58;;;3.47;;
11263;SDS011;5689;48.798;9.070;2022-08-02T02:58:00;3.15;;;3.05;;
11263;SDS011;5689;48.798;9.070;2022-08-02T03:00:29;3.08;;;2.97;;
11263;SDS011;5689;48.798;9.070;2022-08-02T03:03:16;3.67;;;3.58;;
11263;SDS011;5689;48.798;9.070;2022-08-02T03:05:44;2.75;;;2.65;;
11263;SDS011;5689;48.798;9.070;2022-08-02T03:08:12;3.20;;;3.10;;
11263;SDS011;5689;48.798;9.070;2022-08-02T03:10:41;3.30;;;3.20;;
11263;SDS011;5689;48.798;9.070;2022-08-02T03:13:10;3.05;;;2.95;;
11263;SDS011;5689;48.798;9.070;2022-08-02T03:15:39;3.42;;;3.33;;
11263;SDS011;5689;48.798;9.070;2022-08-02T03:18:08;3.28;;;3.17;;
11263;SDS011;5689;48.798;9.070;2022-08-02T03:20:37;3.45;;;3.35;;
11263;SDS011;5689;48.798;9.070;2022-08-02T03:23:05;3.20;;;3.10;;
11263;SDS011;5689;48.798;9.070;2022-08-02T03:25:33;3.83;;;3.70;;
11263;SDS011;5689;48.798;9.070;2022-08-02T03:28:01;4.75;;;4.55;;
11263;SDS011;5689;48.798;9.070;2022-08-02T03:30:29;3.13;;;3.03;;
11263;SDS011;5689;48.798;9.070;2022-08-02T03:32:57;3.28;;;3.17;;
11263;SDS011;5689;48.798;9.070;2022-08-02T03:35:25;3.55;;;3.45;;
11263;SDS011;5689;48.798;9.070;2022-08-02T03:37:54;2.97;;;2.88;;
11263;SDS011;5689;48.798;9.070;2022-08-02T03:40:24;3.58;;;3.47;;
11263;SDS011;5689;48.798;9.070;2022-08-02T03:42:53;3.65;;;3.55;;
11263;SDS011;5689;48.798;9.070;2022-08-02T03:45:22;5.03;;;4.82;;
11263;SDS011;5689;48.798;9.070;2022-08-02T03:47:52;4.45;;;4.25;;
11263;SDS011;5689;48.798;9.070;2022-08-02T03:50:20;4.43;;;4.22;;
11263;SDS011;5689;48.798;9.070;2022-08-02T03:52:48;4.45;;;4.25;;
11263;SDS011;5689;48.798;9.070;2022-08-02T03:55:18;4.50;;;4.30;;
11263;SDS011;5689;48.798;9.070;2022-08-02T03:57:46;4.28;;;4.07;;
11263;SDS011;5689;48.798;9.070;2022-08-02T04:00:16;5.00;;;4.80;;
11263;SDS011;5689;48.798;9.070;2022-08-02T04:02:45;4.88;;;4.68;;
11263;SDS011;5689;48.798;9.070;2022-08-02T04:05:14;4.18;;;3.97;;
11263;SDS011;5689;48.798;9.070;2022-08-02T04:07:42;5.18;;;4.97;;
11263;SDS011;5689;48.798;9.070;2022-08-02T04:10:10;5.40;;;5.20;;
11263;SDS011;5689;48.798;9.070;2022-08-02T04:12:40;5.93;;;5.70;;
11263;SDS011;5689;48.798;9.070;2022-08-02T04:15:09;5.97;;;5.75;;
11263;SDS011;5689;48.798;9.070;2022-08-02T04:17:53;6.85;;;6.55;;
11263;SDS011;5689;48.798;9.070;2022-08-02T04:20:24;5.72;;;5.53;;
11263;SDS011;5689;48.798;9.070;2022-08-02T04:22:56;5.80;;;5.57;;
11263;SDS011;5689;48.798;9.070;2022-08-02T04:25:27;4.97;;;4.78;;
11263;SDS011;5689;48.798;9.070;2022-08-02T04:27:57;4.60;;;4.40;;
11263;SDS011;5689;48.798;9.070;2022-08-02T04:30:26;3.88;;;3.75;;
11263;SDS011;5689;48.798;9.070;2022-08-02T04:32:55;4.18;;;4.00;;
11263;SDS011;5689;48.798;9.070;2022-08-02T04:35:23;4.88;;;4.68;;
11263;SDS011;5689;48.798;9.070;2022-08-02T04:37:52;5.20;;;5.00;;
11263;SDS011;5689;48.798;9.070;2022-08-02T04:40:23;4.10;;;3.90;;
11263;SDS011;5689;48.798;9.070;2022-08-02T04:42:52;5.05;;;4.85;;
11263;SDS011;5689;48.798;9.070;2022-08-02T04:45:21;3.78;;;3.67;;
11263;SDS011;5689;48.798;9.070;2022-08-02T04:47:51;3.47;;;3.38;;
11263;SDS011;5689;48.798;9.070;2022-08-02T04:50:29;3.15;;;3.05;;
11263;SDS011;5689;48.798;9.070;2022-08-02T04:52:57;1.30;;;1.30;;
11263;SDS011;5689;48.798;9.070;2022-08-02T04:55:25;0.60;;;0.60;;
11263;SDS011;5689;48.798;9.070;2022-08-02T04:57:54;0.30;;;0.30;;
11263;SDS011;5689;48.798;9.070;2022-08-02T05:00:24;0.20;;;0.20;;
11263;SDS011;5689;48.798;9.070;2022-08-02T05:03:02;0.20;;;0.20;;
11263;SDS011;5689;48.798;9.070;2022-08-02T05:05:30;0.30;;;0.30;;
11263;SDS011;5689;48.798;9.070;2022-08-02T05:07:58;0.20;;;0.20;;
11263;SDS011;5689;48.798;9.070;2022-08-02T05:10:27;0.30;;;0.30;;
11263;SDS011;5689;48.798;9.070;2022-08-02T05:12:55;0.20;;;0.20;;
11263;SDS011;5689;48.798;9.070;2022-08-02T05:15:25;0.20;;;0.20;;
11263;SDS011;5689;48.798;9.070;2022-08-02T05:17:55;0.20;;;0.20;;
11263;SDS011;5689;48.798;9.070;2022-08-02T05:20:23;0.13;;;0.13;;
11263;SDS011;5689;48.798;9.070;2022-08-02T05:22:51;0.22;;;0.22;;
11263;SDS011;5689;48.798;9.070;2022-08-02T05:25:20;0.20;;;0.20;;
11263;SDS011;5689;48.798;9.070;2022-08-02T05:27:48;0.20;;;0.20;;
11263;SDS011;5689;48.798;9.070;2022-08-02T05:30:16;0.20;;;0.20;;
11263;SDS011;5689;48.798;9.070;2022-08-02T05:32:53;0.20;;;0.20;;
11263;SDS011;5689;48.798;9.070;2022-08-02T05:35:22;0.28;;;0.28;;
11263;SDS011;5689;48.798;9.070;2022-08-02T05:37:51;0.30;;;0.30;;
11263;SDS011;5689;48.798;9.070;2022-08-02T05:40:19;0.13;;;0.13;;
11263;SDS011;5689;48.798;9.070;2022-08-02T05:42:47;0.10;;;0.10;;
11263;SDS011;5689;48.798;9.070;2022-08-02T05:45:15;0.10;;;0.10;;
11263;SDS011;5689;48.798;9.070;2022-08-02T05:47:43;0.10;;;0.10;;
11263;SDS011;5689;48.798;9.070;2022-08-02T05:50:13;0.10;;;0.10;;
11263;SDS011;5689;48.798;9.070;2022-08-02T05:52:43;0.10;;;0.10;;
11263;SDS011;5689;48.798;9.070;2022-08-02T05:55:15;0.10;;;0.10;;
11263;SDS011;5689;48.798;9.070;2022-08-02T05:58:01;0.10;;;0.10;;
11263;SDS011;5689;48.798;9.070;2022-08-02T06:00:32;0.20;;;0.20;;
11263;SDS011;5689;48.798;9.070;2022-08-02T06:03:10;0.10;;;0.10;;
11263;SDS011;5689;48.798;9.070;2022-08-02T06:05:49;0.10;;;0.10;;
11263;SDS011;5689;48.798;9.070;2022-08-02T06:08:20;0.25;;;0.25;;
11263;SDS011;5689;48.798;9.070;2022-08-02T06:10:59;0.30;;;0.30;;
11263;SDS011;5689;48.798;9.070;2022-08-02T06:13:28;0.30;;;0.30;;
11263;SDS011;5689;48.798;9.070;2022-08-02T06:15:57;0.20;;;0.20;;
11263;SDS011;5689;48.798;9.070;2022-08-02T06:18:26;0.20;;;0.20;;
11263;SDS011;5689;48.798;9.070;2022-08-02T06:20:57;0.10;;;0.10;;
11263;SDS011;5689;48.798;9.070;2022-08-02T06:23:29;0.10;;;0.10;;
11263;SDS011;5689;48.798;9.070;2022-08-02T06:25:59;0.00;;;0.00;;
11263;SDS011;5689;48.798;9.070;2022-08-02T06:28:29;0.00;;;0.00;;
11263;SDS011;5689;48.798;9.070;2022-08-02T06:30:57;0.03;;;0.03;;
11263;SDS011;5689;48.798;9.070;2022-08-02T06:33:38;0.05;;;0.05;;
11263;SDS011;5689;48.798;9.070;2022-08-02T06:36:08;0.00;;;0.00;;
11263;SDS011;5689;48.798;9.070;2022-08-02T06:38:43;0.00;;;0.00;;
11263;SDS011;5689;48.798;9.070;2022-08-02T06:41:19;0.00;;;0.00;;
11263;SDS011;5689;48.798;9.070;2022-08-02T06:43:52;0.00;;;0.00;;
11263;SDS011;5689;48.798;9.070;2022-08-02T06:46:21;0.00;;;0.00;;
11263;SDS011;5689;48.798;9.070;2022-08-02T06:48:50;0.00;;;0.00;;
11263;SDS011;5689;48.798;9.070;2022-08-02T06:51:33;0.00;;;0.00;;
11263;SDS011;5689;48.798;9.070;2022-08-02T06:54:01;0.00;;;0.00;;
11263;SDS011;5689;48.798;9.070;2022-08-02T06:56:29;0.00;;;0.00;;
11263;SDS011;5689;48.798;9.070;2022-08-02T06:58:57;0.00;;;0.00;;
11263;SDS011;5689;48.798;9.070;2022-08-02T07:01:28;0.00;;;0.00;;
11263;SDS011;5689;48.798;9.070;2022-08-02T07:03:56;0.00;;;0.00;;
11263;SDS011;5689;48.798;9.070;2022-08-02T07:06:24;0.00;;;0.00;;
11263;SDS011;5689;48.798;9.070;2022-08-02T07:08:54;0.00;;;0.00;;
11263;SDS011;5689;48.798;9.070;2022-08-02T07:11:42;0.00;;;0.00;;
11263;SDS011;5689;48.798;9.070;2022-08-02T07:14:10;0.00;;;0.00;;
11263;SDS011;5689;48.798;9.070;2022-08-02T07:16:38;0.00;;;0.00;;
11263;SDS011;5689;48.798;9.070;2022-08-02T07:19:07;0.00;;;0.00;;
11263;SDS011;5689;48.798;9.070;2022-08-02T07:21:35;0.00;;;0.00;;
11263;SDS011;5689;48.798;9.070;2022-08-02T07:24:04;0.00;;;0.00;;
11263;SDS011;5689;48.798;9.070;2022-08-02T07:26:33;0.00;;;0.00;;
11263;SDS011;5689;48.798;9.070;2022-08-02T07:29:06;0.00;;;0.00;;
11263;SDS011;5689;48.798;9.070;2022-08-02T07:31:34;0.00;;;0.00;;
11263;SDS011;5689;48.798;9.070;2022-08-02T07:34:02;0.00;;;0.00;;
11263;SDS011;5689;48.798;9.070;2022-08-02T07:36:41;0.00;;;0.00;;
11263;SDS011;5689;48.798;9.070;2022-08-02T07:39:10;0.00;;;0.00;;
11263;SDS011;5689;48.798;9.070;2022-08-02T07:41:38;0.00;;;0.00;;
11263;SDS011;5689;48.798;9.070;2022-08-02T07:44:06;0.00;;;0.00;;
11263;SDS011;5689;48.798;9.070;2022-08-02T07:46:34;0.00;;;0.00;;
11263;SDS011;5689;48.798;9.070;2022-08-02T07:49:03;0.00;;;0.00;;
11263;SDS011;5689;48.798;9.070;2022-08-02T07:51:31;0.00;;;0.00;;
11263;SDS011;5689;48.798;9.070;2022-08-02T07:54:01;0.00;;;0.00;;
11263;SDS011;5689;48.798;9.070;2022-08-02T07:56:30;0.00;;;0.00;;
11263;SDS011;5689;48.798;9.070;2022-08-02T07:58:58;0.00;;;0.00;;
11263;SDS011;5689;48.798;9.070;2022-08-02T08:01:37;0.00;;;0.00;;
11263;SDS011;5689;48.798;9.070;2022-08-02T08:04:05;0.00;;;0.00;;
11263;SDS011;5689;48.798;9.070;2022-08-02T08:06:33;0.00;;;0.00;;
11263;SDS011;5689;48.798;9.070;2022-08-02T08:09:01;0.00;;;0.00;;
11263;SDS011;5689;48.798;9.070;2022-08-02T08:11:31;0.00;;;0.00;;
11263;SDS011;5689;48.798;9.070;2022-08-02T08:13:59;0.00;;;0.00;;
11263;SDS011;5689;48.798;9.070;2022-08-02T08:16:27;0.00;;;0.00;;
11263;SDS011;5689;48.798;9.070;2022-08-02T08:18:55;0.00;;;0.00;;
11263;SDS011;5689;48.798;9.070;2022-08-02T08:21:24;0.00;;;0.00;;
11263;SDS011;5689;48.798;9.070;2022-08-02T08:23:52;0.00;;;0.00;;
11263;SDS011;5689;48.798;9.070;2022-08-02T08:26:20;0.00;;;0.00;;
11263;SDS011;5689;48.798;9.070;2022-08-02T08:28:55;0.00;;;0.00;;
11263;SDS011;5689;48.798;9.070;2022-08-02T08:31:24;0.00;;;0.00;;
11263;SDS011;5689;48.798;9.070;2022-08-02T08:33:52;0.00;;;0.00;;
11263;SDS011;5689;48.798;9.070;2022-08-02T08:36:20;0.00;;;0.00;;
11263;SDS011;5689;48.798;9.070;2022-08-02T08:38:48;0.00;;;0.00;;
11263;SDS011;5689;48.798;9.070;2022-08-02T08:41:17;0.00;;;0.00;;
11263;SDS011;5689;48.798;9.070;2022-08-02T08:43:45;0.00;;;0.00;;
11263;SDS011;5689;48.798;9.070;2022-08-02T08:46:20;0.00;;;0.00;;
11263;SDS011;5689;48.798;9.070;2022-08-02T08:48:53;0.00;;;0.00;;
11263;SDS011;5689;48.798;9.070;2022-08-02T08:51:35;0.00;;;0.00;;
11263;SDS011;5689;48.798;9.070;2022-08-02T08:54:04;0.00;;;0.00;;
11263;SDS011;5689;48.798;9.070;2022-08-02T08:56:36;0.00;;;0.00;;
11263;SDS011;5689;48.798;9.070;2022-08-02T08:59:04;0.00;;;0.00;;
11263;SDS011;5689;48.798;9.070;2022-08-02T09:01:34;0.00;;;0.00;;
11263;SDS011;5689;48.798;9.070;2022-08-02T09:04:02;0.00;;;0.00;;
11263;SDS011;5689;48.798;9.070;2022-08-02T09:06:31;0.00;;;0.00;;
11263;SDS011;5689;48.798;9.070;2022-08-02T09:08:59;0.00;;;0.00;;
11263;SDS011;5689;48.798;9.070;2022-08-02T09:11:27;0.00;;;0.00;;
11263;SDS011;5689;48.798;9.070;2022-08-02T09:13:56;0.00;;;0.00;;
11263;SDS011;5689;48.798;9.070;2022-08-02T09:16:27;0.00;;;0.00;;
11263;SDS011;5689;48.798;9.070;2022-08-02T09:19:00;0.00;;;0.00;;
11263;SDS011;5689;48.798;9.070;2022-08-02T09:21:42;0.00;;;0.00;;
11263;SDS011;5689;48.798;9.070;2022-08-02T09:24:15;0.00;;;0.00;;
11263;SDS011;5689;48.798;9.070;2022-08-02T09:26:44;0.00;;;0.00;;
11263;SDS011;5689;48.798;9.070;2022-08-02T09:29:13;0.00;;;0.00;;
11263;SDS011;5689;48.798;9.070;2022-08-02T09:31:42;0.00;;;0.00;;
11263;SDS011;5689;48.798;9.070;2022-08-02T09:34:12;0.00;;;0.00;;
11263;SDS011;5689;48.798;9.070;2022-08-02T09:36:55;0.00;;;0.00;;
11263;SDS011;5689;48.798;9.070;2022-08-02T09:39:23;0.00;;;0.00;;
11263;SDS011;5689;48.798;9.070;2022-08-02T09:41:51;0.00;;;0.00;;
11263;SDS011;5689;48.798;9.070;2022-08-02T09:44:33;0.00;;;0.00;;
11263;SDS011;5689;48.798;9.070;2022-08-02T09:47:01;0.00;;;0.00;;
11263;SDS011;5689;48.798;9.070;2022-08-02T09:49:53;0.00;;;0.00;;
11263;SDS011;5689;48.798;9.070;2022-08-02T09:52:26;0.00;;;0.00;;
11263;SDS011;5689;48.798;9.070;2022-08-02T09:55:01;0.00;;;0.00;;
11263;SDS011;5689;48.798;9.070;2022-08-02T09:57:30;0.00;;;0.00;;
11263;SDS011;5689;48.798;9.070;2022-08-02T10:00:05;0.00;;;0.00;;
11263;SDS011;5689;48.798;9.070;2022-08-02T10:02:37;0.00;;;0.00;;
11263;SDS011;5689;48.798;9.070;2022-08-02T10:05:07;0.00;;;0.00;;
11263;SDS011;5689;48.798;9.070;2022-08-02T10:07:36;0.00;;;0.00;;
11263;SDS011;5689;48.798;9.070;2022-08-02T10:10:18;0.00;;;0.00;;
11263;SDS011;5689;48.798;9.070;2022-08-02T10:12:46;0.00;;;0.00;;
11263;SDS011;5689;48.798;9.070;2022-08-02T10:15:15;0.00;;;0.00;;
11263;SDS011;5689;48.798;9.070;2022-08-02T10:17:43;0.00;;;0.00;;
11263;SDS011;5689;48.798;9.070;2022-08-02T10:20:14;0.00;;;0.00;;
11263;SDS011;5689;48.798;9.070;2022-08-02T10:22:42;0.00;;;0.00;;
11263;SDS011;5689;48.798;9.070;2022-08-02T10:25:11;0.00;;;0.00;;
11263;SDS011;5689;48.798;9.070;2022-08-02T10:27:40;0.00;;;0.00;;
11263;SDS011;5689;48.798;9.070;2022-08-02T10:30:28;0.00;;;0.00;;
11263;SDS011;5689;48.798;9.070;2022-08-02T10:32:57;0.00;;;0.00;;
11263;SDS011;5689;48.798;9.070;2022-08-02T10:35:28;0.00;;;0.00;;
11263;SDS011;5689;48.798;9.070;2022-08-02T10:38:01;0.00;;;0.00;;
11263;SDS011;5689;48.798;9.070;2022-08-02T10:40:43;0.00;;;0.00;;
11263;SDS011;5689;48.798;9.070;2022-08-02T10:43:12;0.00;;;0.00;;
11263;SDS011;5689;48.798;9.070;2022-08-02T10:49:00;0.00;;;0.00;;
11263;SDS011;5689;48.798;9.070;2022-08-02T10:51:57;0.00;;;0.00;;
11263;SDS011;5689;48.798;9.070;2022-08-02T10:54:32;0.00;;;0.00;;
11263;SDS011;5689;48.798;9.070;2022-08-02T10:57:12;0.00;;;0.00;;
11263;SDS011;5689;48.798;9.070;2022-08-02T10:59:46;0.00;;;0.00;;
11263;SDS011;5689;48.798;9.070;2022-08-02T11:05:04;0.00;;;0.00;;
11263;SDS011;5689;48.798;9.070;2022-08-02T11:07:42;0.00;;;0.00;;
11263;SDS011;5689;48.798;9.070;2022-08-02T11:10:29;0.00;;;0.00;;
11263;SDS011;5689;48.798;9.070;2022-08-02T11:13:10;0.00;;;0.00;;
11263;SDS011;5689;48.798;9.070;2022-08-02T11:15:56;0.00;;;0.00;;
11263;SDS011;5689;48.798;9.070;2022-08-02T11:21:36;0.00;;;0.00;;
11263;SDS011;5689;48.798;9.070;2022-08-02T11:24:26;0.00;;;0.00;;
11263;SDS011;5689;48.798;9.070;2022-08-02T11:26:56;0.00;;;0.00;;
11263;SDS011;5689;48.798;9.070;2022-08-02T11:29:36;0.00;;;0.00;;
11263;SDS011;5689;48.798;9.070;2022-08-02T11:32:20;0.00;;;0.00;;
11263;SDS011;5689;48.798;9.070;2022-08-02T11:34:51;0.00;;;0.00;;
11263;SDS011;5689;48.798;9.070;2022-08-02T11:37:29;0.00;;;0.00;;
11263;SDS011;5689;48.798;9.070;2022-08-02T11:39:59;0.00;;;0.00;;
11263;SDS011;5689;48.798;9.070;2022-08-02T11:42:31;0.00;;;0.00;;
11263;SDS011;5689;48.798;9.070;2022-08-02T11:45:00;0.00;;;0.00;;
11263;SDS011;5689;48.798;9.070;2022-08-02T11:47:28;0.00;;;0.00;;
11263;SDS011;5689;48.798;9.070;2022-08-02T11:50:10;0.00;;;0.00;;
11263;SDS011;5689;48.798;9.070;2022-08-02T11:52:38;0.00;;;0.00;;
11263;SDS011;5689;48.798;9.070;2022-08-02T11:55:09;0.00;;;0.00;;
11263;SDS011;5689;48.798;9.070;2022-08-02T11:57:37;0.00;;;0.00;;
11263;SDS011;5689;48.798;9.070;2022-08-02T12:00:12;0.00;;;0.00;;
11263;SDS011;5689;48.798;9.070;2022-08-02T12:02:44;0.00;;;0.00;;
11263;SDS011;5689;48.798;9.070;2022-08-02T12:05:14;0.00;;;0.00;;
11263;SDS011;5689;48.798;9.070;2022-08-02T12:08:05;0.00;;;0.00;;
11263;SDS011;5689;48.798;9.070;2022-08-02T12:10:35;0.00;;;0.00;;
11263;SDS011;5689;48.798;9.070;2022-08-02T12:13:13;0.00;;;0.00;;
11263;SDS011;5689;48.798;9.070;2022-08-02T12:15:42;0.00;;;0.00;;
11263;SDS011;5689;48.798;9.070;2022-08-02T12:18:13;0.00;;;0.00;;
11263;SDS011;5689;48.798;9.070;2022-08-02T12:21:00;0.00;;;0.00;;
11263;SDS011;5689;48.798;9.070;2022-08-02T12:23:29;0.00;;;0.00;;
11263;SDS011;5689;48.798;9.070;2022-08-02T12:26:03;0.00;;;0.00;;
11263;SDS011;5689;48.798;9.070;2022-08-02T12:28:32;0.00;;;0.00;;
11263;SDS011;5689;48.798;9.070;2022-08-02T12:31:01;0.00;;;0.00;;
11263;SDS011;5689;48.798;9.070;2022-08-02T12:33:43;0.00;;;0.00;;
11263;SDS011;5689;48.798;9.070;2022-08-02T12:36:15;0.00;;;0.00;;
11263;SDS011;5689;48.798;9.070;2022-08-02T12:38:55;0.00;;;0.00;;
11263;SDS011;5689;48.798;9.070;2022-08-02T12:41:32;0.00;;;0.00;;
11263;SDS011;5689;48.798;9.070;2022-08-02T12:44:02;0.00;;;0.00;;
11263;SDS011;5689;48.798;9.070;2022-08-02T12:46:30;0.00;;;0.00;;
11263;SDS011;5689;48.798;9.070;2022-08-02T12:48:58;0.00;;;0.00;;
11263;SDS011;5689;48.798;9.070;2022-08-02T12:51:41;0.00;;;0.00;;
11263;SDS011;5689;48.798;9.070;2022-08-02T12:54:18;0.00;;;0.00;;
11263;SDS011;5689;48.798;9.070;2022-08-02T12:56:49;0.00;;;0.00;;
11263;SDS011;5689;48.798;9.070;2022-08-02T12:59:31;0.00;;;0.00;;
11263;SDS011;5689;48.798;9.070;2022-08-02T13:02:01;0.00;;;0.00;;
11263;SDS011;5689;48.798;9.070;2022-08-02T13:04:30;0.00;;;0.00;;
11263;SDS011;5689;48.798;9.070;2022-08-02T13:06:59;0.00;;;0.00;;
11263;SDS011;5689;48.798;9.070;2022-08-02T13:09:27;0.00;;;0.00;;
11263;SDS011;5689;48.798;9.070;2022-08-02T13:12:05;0.00;;;0.00;;
11263;SDS011;5689;48.798;9.070;2022-08-02T13:14:34;0.00;;;0.00;;
11263;SDS011;5689;48.798;9.070;2022-08-02T13:17:05;0.00;;;0.00;;
11263;SDS011;5689;48.798;9.070;2022-08-02T13:19:33;0.00;;;0.00;;
11263;SDS011;5689;48.798;9.070;2022-08-02T13:22:02;0.00;;;0.00;;
11263;SDS011;5689;48.798;9.070;2022-08-02T13:24:30;0.00;;;0.00;;
11263;SDS011;5689;48.798;9.070;2022-08-02T13:27:00;0.00;;;0.00;;
11263;SDS011;5689;48.798;9.070;2022-08-02T13:29:29;0.00;;;0.00;;
11263;SDS011;5689;48.798;9.070;2022-08-02T13:31:57;0.00;;;0.00;;
11263;SDS011;5689;48.798;9.070;2022-08-02T13:34:26;0.00;;;0.00;;
11263;SDS011;5689;48.798;9.070;2022-08-02T13:36:54;0.00;;;0.00;;
11263;SDS011;5689;48.798;9.070;2022-08-02T13:39:30;0.00;;;0.00;;
11263;SDS011;5689;48.798;9.070;2022-08-02T13:41:58;0.00;;;0.00;;
11263;SDS011;5689;48.798;9.070;2022-08-02T13:44:26;0.00;;;0.00;;
11263;SDS011;5689;48.798;9.070;2022-08-02T13:46:55;0.00;;;0.00;;
11263;SDS011;5689;48.798;9.070;2022-08-02T13:49:23;0.00;;;0.00;;
11263;SDS011;5689;48.798;9.070;2022-08-02T13:51:51;0.00;;;0.00;;
11263;SDS011;5689;48.798;9.070;2022-08-02T13:54:19;0.00;;;0.00;;
11263;SDS011;5689;48.798;9.070;2022-08-02T13:56:47;0.00;;;0.00;;
11263;SDS011;5689;48.798;9.070;2022-08-02T13:59:15;0.00;;;0.00;;
11263;SDS011;5689;48.798;9.070;2022-08-02T14:01:43;0.00;;;0.00;;
11263;SDS011;5689;48.798;9.070;2022-08-02T14:04:13;0.00;;;0.00;;
11263;SDS011;5689;48.798;9.070;2022-08-02T14:06:41;0.00;;;0.00;;
11263;SDS011;5689;48.798;9.070;2022-08-02T14:09:17;0.00;;;0.00;;
11263;SDS011;5689;48.798;9.070;2022-08-02T14:11:45;0.00;;;0.00;;
11263;SDS011;5689;48.798;9.070;2022-08-02T14:14:14;0.00;;;0.00;;
11263;SDS011;5689;48.798;9.070;2022-08-02T14:16:42;0.00;;;0.00;;
11263;SDS011;5689;48.798;9.070;2022-08-02T14:19:11;0.00;;;0.00;;
11263;SDS011;5689;48.798;9.070;2022-08-02T14:21:42;0.00;;;0.00;;
11263;SDS011;5689;48.798;9.070;2022-08-02T14:24:10;0.00;;;0.00;;
11263;SDS011;5689;48.798;9.070;2022-08-02T14:26:38;0.00;;;0.00;;
11263;SDS011;5689;48.798;9.070;2022-08-02T14:29:06;0.00;;;0.00;;
11263;SDS011;5689;48.798;9.070;2022-08-02T14:31:36;0.00;;;0.00;;
11263;SDS011;5689;48.798;9.070;2022-08-02T14:34:20;0.00;;;0.00;;
11263;SDS011;5689;48.798;9.070;2022-08-02T14:36:48;0.00;;;0.00;;
11263;SDS011;5689;48.798;9.070;2022-08-02T14:39:18;0.00;;;0.00;;
11263;SDS011;5689;48.798;9.070;2022-08-02T14:41:47;0.00;;;0.00;;
11263;SDS011;5689;48.798;9.070;2022-08-02T14:44:15;0.00;;;0.00;;
11263;SDS011;5689;48.798;9.070;2022-08-02T14:46:43;0.00;;;0.00;;
11263;SDS011;5689;48.798;9.070;2022-08-02T14:49:11;0.00;;;0.00;;
11263;SDS011;5689;48.798;9.070;2022-08-02T14:51:41;0.00;;;0.00;;
11263;SDS011;5689;48.798;9.070;2022-08-02T14:54:09;0.00;;;0.00;;
11263;SDS011;5689;48.798;9.070;2022-08-02T14:56:37;0.00;;;0.00;;
11263;SDS011;5689;48.798;9.070;2022-08-02T14:59:13;0.00;;;0.00;;
11263;SDS011;5689;48.798;9.070;2022-08-02T15:01:42;0.00;;;0.00;;
11263;SDS011;5689;48.798;9.070;2022-08-02T15:04:10;0.00;;;0.00;;
11263;SDS011;5689;48.798;9.070;2022-08-02T15:06:38;0.00;;;0.00;;
11263;SDS011;5689;48.798;9.070;2022-08-02T15:09:08;0.00;;;0.00;;
11263;SDS011;5689;48.798;9.070;2022-08-02T15:11:36;0.00;;;0.00;;
11263;SDS011;5689;48.798;9.070;2022-08-02T15:14:05;0.00;;;0.00;;
11263;SDS011;5689;48.798;9.070;2022-08-02T15:16:33;0.00;;;0.00;;
11263;SDS011;5689;48.798;9.070;2022-08-02T15:19:12;0.00;;;0.00;;
11263;SDS011;5689;48.798;9.070;2022-08-02T15:21:42;0.00;;;0.00;;
11263;SDS011;5689;48.798;9.070;2022-08-02T15:24:18;0.00;;;0.00;;
11263;SDS011;5689;48.798;9.070;2022-08-02T15:26:46;0.00;;;0.00;;
11263;SDS011;5689;48.798;9.070;2022-08-02T15:29:15;0.00;;;0.00;;
11263;SDS011;5689;48.798;9.070;2022-08-02T15:31:44;0.00;;;0.00;;
11263;SDS011;5689;48.798;9.070;2022-08-02T15:34:12;0.00;;;0.00;;